sensor_id;sensor_type;location;lat;lon;timestamp;temperature;humidity
40696;DHT22;40425;51.102;17.208;2022-08-02T00:04:16;19.40;99.90
40696;DHT22;40425;51.102;17.208;2022-08-02T00:09:17;19.30;99.90
40696;DHT22;40425;51.102;17.208;2022-08-02T00:14:18;19.30;99.90
40696;DHT22;40425;51.102;17.208;2022-08-02T00:19:19;19.30;99.90
40696;DHT22;40425;51.102;17.208;2022-08-02T00:24:20;19.20;99.90
40696;DHT22;40425;51.102;17.208;2022-08-02T00:29:21;19.20;99.90
40696;DHT22;40425;51.102;17.208;2022-08-02T00:34:22;19.20;99.90
40696;DHT22;40425;51.102;17.208;2022-08-02T00:39:23;19.10;99.90
40696;DHT22;40425;51.102;17.208;2022-08-02T00:44:24;19.20;99.90
40696;DHT22;40425;51.102;17.208;2022-08-02T00:49:25;19.20;99.90
40696;DHT22;40425;51.102;17.208;2022-08-02T00:54:28;19.10;99.90
40696;DHT22;40425;51.102;17.208;2022-08-02T00:59:29;19.00;99.90
40696;DHT22;40425;51.102;17.208;2022-08-02T01:04:29;19.00;99.90
40696;DHT22;40425;51.102;17.208;2022-08-02T01:09:30;18.90;99.90
40696;DHT22;40425;51.102;17.208;2022-08-02T01:14:31;18.80;99.90
40696;DHT22;40425;51.102;17.208;2022-08-02T01:24:58;18.60;99.90
40696;DHT22;40425;51.102;17.208;2022-08-02T01:30:03;18.50;99.90
40696;DHT22;40425;51.102;17.208;2022-08-02T01:35:08;18.30;99.90
40696;DHT22;40425;51.102;17.208;2022-08-02T01:40:12;18.20;99.90
40696;DHT22;40425;51.102;17.208;2022-08-02T01:45:14;18.10;99.90
40696;DHT22;40425;51.102;17.208;2022-08-02T01:50:18;18.10;99.90
40696;DHT22;40425;51.102;17.208;2022-08-02T01:55:26;18.00;99.90
40696;DHT22;40425;51.102;17.208;2022-08-02T02:00:31;17.90;99.90
40696;DHT22;40425;51.102;17.208;2022-08-02T02:05:34;17.80;99.90
40696;DHT22;40425;51.102;17.208;2022-08-02T02:10:38;17.70;99.90
40696;DHT22;40425;51.102;17.208;2022-08-02T02:15:43;17.60;99.90
40696;DHT22;40425;51.102;17.208;2022-08-02T02:20:46;17.60;99.90
40696;DHT22;40425;51.102;17.208;2022-08-02T02:25:48;17.50;99.90
40696;DHT22;40425;51.102;17.208;2022-08-02T02:30:51;17.60;99.90
40696;DHT22;40425;51.102;17.208;2022-08-02T02:35:54;17.50;99.90
40696;DHT22;40425;51.102;17.208;2022-08-02T02:41:00;17.40;99.90
40696;DHT22;40425;51.102;17.208;2022-08-02T02:46:03;17.40;99.90
40696;DHT22;40425;51.102;17.208;2022-08-02T02:51:06;17.40;99.90
40696;DHT22;40425;51.102;17.208;2022-08-02T02:56:08;17.50;99.90
40696;DHT22;40425;51.102;17.208;2022-08-02T03:01:09;17.40;99.90
40696;DHT22;40425;51.102;17.208;2022-08-02T03:06:30;17.40;99.90
40696;DHT22;40425;51.102;17.208;2022-08-02T03:11:32;17.40;99.90
40696;DHT22;40425;51.102;17.208;2022-08-02T03:16:33;17.30;99.90
40696;DHT22;40425;51.102;17.208;2022-08-02T03:21:42;17.30;99.90
40696;DHT22;40425;51.102;17.208;2022-08-02T03:26:42;17.20;99.90
40696;DHT22;40425;51.102;17.208;2022-08-02T03:31:44;17.20;99.90
40696;DHT22;40425;51.102;17.208;2022-08-02T03:36:49;17.20;99.90
40696;DHT22;40425;51.102;17.208;2022-08-02T03:41:52;17.20;99.90
40696;DHT22;40425;51.102;17.208;2022-08-02T03:46:54;17.20;99.90
40696;DHT22;40425;51.102;17.208;2022-08-02T03:51:55;17.20;99.90
40696;DHT22;40425;51.102;17.208;2022-08-02T03:56:56;17.20;99.90
40696;DHT22;40425;51.102;17.208;2022-08-02T04:01:57;17.20;99.90
40696;DHT22;40425;51.102;17.208;2022-08-02T04:06:58;17.40;99.90
40696;DHT22;40425;51.102;17.208;2022-08-02T04:11:59;17.40;99.90
40696;DHT22;40425;51.102;17.208;2022-08-02T04:17:06;17.50;99.90
40696;DHT22;40425;51.102;17.208;2022-08-02T04:22:19;17.40;99.90
40696;DHT22;40425;51.102;17.208;2022-08-02T04:27:21;17.50;99.90
40696;DHT22;40425;51.102;17.208;2022-08-02T04:32:23;17.90;99.90
40696;DHT22;40425;51.102;17.208;2022-08-02T04:37:25;17.80;99.90
40696;DHT22;40425;51.102;17.208;2022-08-02T04:42:26;18.10;99.90
40696;DHT22;40425;51.102;17.208;2022-08-02T04:47:27;19.10;99.90
40696;DHT22;40425;51.102;17.208;2022-08-02T04:52:29;18.70;99.90
40696;DHT22;40425;51.102;17.208;2022-08-02T04:57:30;18.80;99.90
40696;DHT22;40425;51.102;17.208;2022-08-02T05:02:49;18.40;99.90
40696;DHT22;40425;51.102;17.208;2022-08-02T05:07:52;18.50;99.90
40696;DHT22;40425;51.102;17.208;2022-08-02T05:12:53;18.60;99.90
40696;DHT22;40425;51.102;17.208;2022-08-02T05:17:54;18.50;99.90
40696;DHT22;40425;51.102;17.208;2022-08-02T05:22:54;18.50;99.90
40696;DHT22;40425;51.102;17.208;2022-08-02T05:27:55;18.60;99.90
40696;DHT22;40425;51.102;17.208;2022-08-02T05:32:56;18.50;99.90
40696;DHT22;40425;51.102;17.208;2022-08-02T05:37:57;18.50;99.90
40696;DHT22;40425;51.102;17.208;2022-08-02T05:42:58;18.70;99.90
40696;DHT22;40425;51.102;17.208;2022-08-02T05:47:59;19.00;99.90
40696;DHT22;40425;51.102;17.208;2022-08-02T05:53:13;18.90;99.90
40696;DHT22;40425;51.102;17.208;2022-08-02T05:58:27;19.10;99.90
40696;DHT22;40425;51.102;17.208;2022-08-02T06:03:41;19.30;99.90
40696;DHT22;40425;51.102;17.208;2022-08-02T06:08:47;19.60;99.90
40696;DHT22;40425;51.102;17.208;2022-08-02T06:13:49;19.60;99.90
40696;DHT22;40425;51.102;17.208;2022-08-02T06:18:51;19.70;99.90
40696;DHT22;40425;51.102;17.208;2022-08-02T06:23:52;20.00;99.90
40696;DHT22;40425;51.102;17.208;2022-08-02T06:28:56;20.10;99.90
40696;DHT22;40425;51.102;17.208;2022-08-02T06:33:57;20.40;99.90
40696;DHT22;40425;51.102;17.208;2022-08-02T06:39:19;20.50;99.90
40696;DHT22;40425;51.102;17.208;2022-08-02T06:44:23;20.70;99.90
40696;DHT22;40425;51.102;17.208;2022-08-02T06:49:24;20.70;99.90
40696;DHT22;40425;51.102;17.208;2022-08-02T06:54:25;20.90;99.90
40696;DHT22;40425;51.102;17.208;2022-08-02T06:59:26;21.10;99.90
40696;DHT22;40425;51.102;17.208;2022-08-02T07:04:28;20.90;99.90
40696;DHT22;40425;51.102;17.208;2022-08-02T07:09:29;21.20;99.90
40696;DHT22;40425;51.102;17.208;2022-08-02T07:14:30;21.50;99.90
40696;DHT22;40425;51.102;17.208;2022-08-02T07:19:31;21.60;99.90
40696;DHT22;40425;51.102;17.208;2022-08-02T07:24:32;21.70;99.90
40696;DHT22;40425;51.102;17.208;2022-08-02T07:29:33;21.90;99.90
40696;DHT22;40425;51.102;17.208;2022-08-02T07:34:35;21.90;99.90
40696;DHT22;40425;51.102;17.208;2022-08-02T07:39:36;21.80;99.90
40696;DHT22;40425;51.102;17.208;2022-08-02T07:44:38;21.60;99.90
40696;DHT22;40425;51.102;17.208;2022-08-02T07:49:40;21.70;99.90
40696;DHT22;40425;51.102;17.208;2022-08-02T07:54:42;21.90;99.90
40696;DHT22;40425;51.102;17.208;2022-08-02T07:59:44;21.90;99.90
40696;DHT22;40425;51.102;17.208;2022-08-02T08:04:46;21.90;99.90
40696;DHT22;40425;51.102;17.208;2022-08-02T08:09:47;22.20;99.90
40696;DHT22;40425;51.102;17.208;2022-08-02T08:14:50;22.00;99.90
40696;DHT22;40425;51.102;17.208;2022-08-02T08:19:51;22.10;99.90
40696;DHT22;40425;51.102;17.208;2022-08-02T08:24:52;22.10;99.90
40696;DHT22;40425;51.102;17.208;2022-08-02T08:29:53;22.30;99.90
40696;DHT22;40425;51.102;17.208;2022-08-02T08:34:54;22.60;99.90
40696;DHT22;40425;51.102;17.208;2022-08-02T08:39:54;22.40;99.90
40696;DHT22;40425;51.102;17.208;2022-08-02T08:44:56;22.50;99.90
40696;DHT22;40425;51.102;17.208;2022-08-02T08:50:07;22.80;99.90
40696;DHT22;40425;51.102;17.208;2022-08-02T08:55:10;22.60;99.90
40696;DHT22;40425;51.102;17.208;2022-08-02T09:00:12;22.90;99.90
40696;DHT22;40425;51.102;17.208;2022-08-02T09:05:16;23.10;99.90
40696;DHT22;40425;51.102;17.208;2022-08-02T09:10:37;23.30;99.90
40696;DHT22;40425;51.102;17.208;2022-08-02T09:15:39;23.20;99.90
40696;DHT22;40425;51.102;17.208;2022-08-02T09:21:04;23.10;99.90
40696;DHT22;40425;51.102;17.208;2022-08-02T09:26:07;23.10;99.90
40696;DHT22;40425;51.102;17.208;2022-08-02T09:31:10;23.30;99.90
40696;DHT22;40425;51.102;17.208;2022-08-02T09:36:14;23.50;99.90
40696;DHT22;40425;51.102;17.208;2022-08-02T09:41:29;23.30;99.90
40696;DHT22;40425;51.102;17.208;2022-08-02T09:46:33;23.10;99.90
40696;DHT22;40425;51.102;17.208;2022-08-02T09:51:56;23.50;99.90
40696;DHT22;40425;51.102;17.208;2022-08-02T09:56:59;23.60;99.90
40696;DHT22;40425;51.102;17.208;2022-08-02T10:02:09;24.00;99.90
40696;DHT22;40425;51.102;17.208;2022-08-02T10:07:11;24.00;99.90
40696;DHT22;40425;51.102;17.208;2022-08-02T10:12:13;23.90;99.90
40696;DHT22;40425;51.102;17.208;2022-08-02T10:17:18;24.10;99.90
40696;DHT22;40425;51.102;17.208;2022-08-02T10:22:20;24.50;99.90
40696;DHT22;40425;51.102;17.208;2022-08-02T10:27:22;24.50;99.90
40696;DHT22;40425;51.102;17.208;2022-08-02T10:32:34;24.00;99.90
40696;DHT22;40425;51.102;17.208;2022-08-02T10:37:38;24.30;99.90
40696;DHT22;40425;51.102;17.208;2022-08-02T10:42:48;24.40;99.90
40696;DHT22;40425;51.102;17.208;2022-08-02T10:48:00;24.90;99.90
40696;DHT22;40425;51.102;17.208;2022-08-02T10:58:24;25.30;99.90
40696;DHT22;40425;51.102;17.208;2022-08-02T11:08:29;24.60;98.70
40696;DHT22;40425;51.102;17.208;2022-08-02T11:13:30;24.70;98.90
40696;DHT22;40425;51.102;17.208;2022-08-02T11:23:44;24.60;99.10
40696;DHT22;40425;51.102;17.208;2022-08-02T11:28:51;24.60;99.10
40696;DHT22;40425;51.102;17.208;2022-08-02T11:33:52;24.70;99.70
40696;DHT22;40425;51.102;17.208;2022-08-02T11:39:13;24.80;97.80
40696;DHT22;40425;51.102;17.208;2022-08-02T11:44:15;24.60;96.00
40696;DHT22;40425;51.102;17.208;2022-08-02T11:49:17;24.80;98.90
40696;DHT22;40425;51.102;17.208;2022-08-02T11:54:29;25.00;96.10
40696;DHT22;40425;51.102;17.208;2022-08-02T11:59:30;25.20;96.60
40696;DHT22;40425;51.102;17.208;2022-08-02T12:04:31;24.90;96.20
40696;DHT22;40425;51.102;17.208;2022-08-02T12:09:34;24.90;95.80
40696;DHT22;40425;51.102;17.208;2022-08-02T12:14:42;25.10;98.20
40696;DHT22;40425;51.102;17.208;2022-08-02T12:19:43;24.80;95.60
40696;DHT22;40425;51.102;17.208;2022-08-02T12:24:53;25.00;95.40
40696;DHT22;40425;51.102;17.208;2022-08-02T12:29:59;25.10;96.60
40696;DHT22;40425;51.102;17.208;2022-08-02T12:35:15;25.00;96.90
40696;DHT22;40425;51.102;17.208;2022-08-02T12:40:31;25.20;95.20
40696;DHT22;40425;51.102;17.208;2022-08-02T12:45:50;25.30;93.10
40696;DHT22;40425;51.102;17.208;2022-08-02T12:50:52;25.50;93.20
40696;DHT22;40425;51.102;17.208;2022-08-02T12:55:56;25.60;93.20
40696;DHT22;40425;51.102;17.208;2022-08-02T13:01:00;25.80;94.90
40696;DHT22;40425;51.102;17.208;2022-08-02T13:06:01;25.80;94.80
40696;DHT22;40425;51.102;17.208;2022-08-02T13:11:02;25.50;93.30
40696;DHT22;40425;51.102;17.208;2022-08-02T13:16:03;25.20;93.60
40696;DHT22;40425;51.102;17.208;2022-08-02T13:21:05;25.50;94.50
40696;DHT22;40425;51.102;17.208;2022-08-02T13:26:06;25.90;95.50
40696;DHT22;40425;51.102;17.208;2022-08-02T13:31:07;26.10;93.80
40696;DHT22;40425;51.102;17.208;2022-08-02T13:36:08;26.00;93.80
40696;DHT22;40425;51.102;17.208;2022-08-02T13:41:09;25.80;92.30
40696;DHT22;40425;51.102;17.208;2022-08-02T13:46:11;25.80;92.70
40696;DHT22;40425;51.102;17.208;2022-08-02T13:51:12;25.60;92.00
40696;DHT22;40425;51.102;17.208;2022-08-02T13:56:13;25.60;95.20
40696;DHT22;40425;51.102;17.208;2022-08-02T14:01:13;25.60;93.00
40696;DHT22;40425;51.102;17.208;2022-08-02T14:06:14;25.90;94.70
40696;DHT22;40425;51.102;17.208;2022-08-02T14:11:15;26.00;92.70
40696;DHT22;40425;51.102;17.208;2022-08-02T14:16:16;25.90;92.40
40696;DHT22;40425;51.102;17.208;2022-08-02T14:21:17;25.90;92.60
40696;DHT22;40425;51.102;17.208;2022-08-02T14:26:18;25.90;92.90
40696;DHT22;40425;51.102;17.208;2022-08-02T14:31:18;26.20;92.80
40696;DHT22;40425;51.102;17.208;2022-08-02T14:36:19;26.40;91.60
40696;DHT22;40425;51.102;17.208;2022-08-02T14:41:21;26.60;92.30
40696;DHT22;40425;51.102;17.208;2022-08-02T14:46:22;26.70;91.40
40696;DHT22;40425;51.102;17.208;2022-08-02T14:51:22;26.20;91.60
40696;DHT22;40425;51.102;17.208;2022-08-02T14:56:24;25.90;91.60
40696;DHT22;40425;51.102;17.208;2022-08-02T15:01:25;25.80;91.30
40696;DHT22;40425;51.102;17.208;2022-08-02T15:06:25;26.00;91.40
40696;DHT22;40425;51.102;17.208;2022-08-02T15:11:32;26.10;90.50
40696;DHT22;40425;51.102;17.208;2022-08-02T15:16:33;26.20;92.10
40696;DHT22;40425;51.102;17.208;2022-08-02T15:21:37;26.20;92.00
40696;DHT22;40425;51.102;17.208;2022-08-02T15:26:38;26.20;90.80
40696;DHT22;40425;51.102;17.208;2022-08-02T15:31:39;26.10;91.40
40696;DHT22;40425;51.102;17.208;2022-08-02T15:36:40;26.10;91.00
40696;DHT22;40425;51.102;17.208;2022-08-02T15:41:41;26.00;90.60
40696;DHT22;40425;51.102;17.208;2022-08-02T15:46:42;26.00;91.30
40696;DHT22;40425;51.102;17.208;2022-08-02T15:51:42;25.90;90.00
40696;DHT22;40425;51.102;17.208;2022-08-02T15:56:43;26.00;92.00
40696;DHT22;40425;51.102;17.208;2022-08-02T16:01:46;26.10;92.90
40696;DHT22;40425;51.102;17.208;2022-08-02T16:06:48;26.20;92.90
40696;DHT22;40425;51.102;17.208;2022-08-02T16:11:49;26.20;92.60
40696;DHT22;40425;51.102;17.208;2022-08-02T16:16:50;26.20;90.60
40696;DHT22;40425;51.102;17.208;2022-08-02T16:21:52;26.10;91.60
40696;DHT22;40425;51.102;17.208;2022-08-02T16:26:53;25.90;90.10
40696;DHT22;40425;51.102;17.208;2022-08-02T16:31:54;25.90;90.70
40696;DHT22;40425;51.102;17.208;2022-08-02T16:36:54;25.80;92.30
40696;DHT22;40425;51.102;17.208;2022-08-02T16:41:55;25.70;92.40
40696;DHT22;40425;51.102;17.208;2022-08-02T16:46:57;25.60;92.10
40696;DHT22;40425;51.102;17.208;2022-08-02T16:51:58;25.60;92.50
40696;DHT22;40425;51.102;17.208;2022-08-02T16:56:59;25.60;93.20
40696;DHT22;40425;51.102;17.208;2022-08-02T17:02:02;25.50;93.60
40696;DHT22;40425;51.102;17.208;2022-08-02T17:07:03;25.50;94.60
40696;DHT22;40425;51.102;17.208;2022-08-02T17:12:04;25.50;95.00
40696;DHT22;40425;51.102;17.208;2022-08-02T17:17:05;25.50;95.00
40696;DHT22;40425;51.102;17.208;2022-08-02T17:22:06;25.40;95.40
40696;DHT22;40425;51.102;17.208;2022-08-02T17:27:07;25.20;96.30
40696;DHT22;40425;51.102;17.208;2022-08-02T17:32:08;25.10;98.00
40696;DHT22;40425;51.102;17.208;2022-08-02T17:37:09;24.90;97.60
40696;DHT22;40425;51.102;17.208;2022-08-02T17:42:10;24.80;97.00
40696;DHT22;40425;51.102;17.208;2022-08-02T17:47:11;24.60;97.00
40696;DHT22;40425;51.102;17.208;2022-08-02T17:52:12;24.40;99.80
40696;DHT22;40425;51.102;17.208;2022-08-02T17:57:13;24.20;99.90
40696;DHT22;40425;51.102;17.208;2022-08-02T18:02:13;23.90;99.90
40696;DHT22;40425;51.102;17.208;2022-08-02T18:07:14;23.70;99.90
40696;DHT22;40425;51.102;17.208;2022-08-02T18:12:15;23.50;99.90
40696;DHT22;40425;51.102;17.208;2022-08-02T18:17:17;23.20;99.90
40696;DHT22;40425;51.102;17.208;2022-08-02T18:22:18;23.00;99.90
40696;DHT22;40425;51.102;17.208;2022-08-02T18:27:19;22.80;99.90
40696;DHT22;40425;51.102;17.208;2022-08-02T18:32:20;22.60;99.90
40696;DHT22;40425;51.102;17.208;2022-08-02T18:37:21;22.40;99.90
40696;DHT22;40425;51.102;17.208;2022-08-02T18:42:22;22.20;99.90
40696;DHT22;40425;51.102;17.208;2022-08-02T18:47:23;22.00;99.90
40696;DHT22;40425;51.102;17.208;2022-08-02T18:52:24;21.70;99.90
40696;DHT22;40425;51.102;17.208;2022-08-02T18:57:25;21.40;99.90
40696;DHT22;40425;51.102;17.208;2022-08-02T19:02:26;21.20;99.90
40696;DHT22;40425;51.102;17.208;2022-08-02T19:07:27;21.10;99.90
40696;DHT22;40425;51.102;17.208;2022-08-02T19:12:28;20.90;99.90
40696;DHT22;40425;51.102;17.208;2022-08-02T19:17:29;20.80;99.90
40696;DHT22;40425;51.102;17.208;2022-08-02T19:22:30;20.60;99.90
40696;DHT22;40425;51.102;17.208;2022-08-02T19:27:31;20.50;99.90
40696;DHT22;40425;51.102;17.208;2022-08-02T19:32:34;20.20;99.90
40696;DHT22;40425;51.102;17.208;2022-08-02T19:37:37;20.00;99.90
40696;DHT22;40425;51.102;17.208;2022-08-02T19:42:41;19.90;99.90
40696;DHT22;40425;51.102;17.208;2022-08-02T19:47:45;19.70;99.90
40696;DHT22;40425;51.102;17.208;2022-08-02T19:52:47;19.70;99.90
40696;DHT22;40425;51.102;17.208;2022-08-02T19:57:48;19.60;99.90
40696;DHT22;40425;51.102;17.208;2022-08-02T20:02:49;19.50;99.90
40696;DHT22;40425;51.102;17.208;2022-08-02T20:07:50;19.40;99.90
40696;DHT22;40425;51.102;17.208;2022-08-02T20:12:52;19.40;99.90
40696;DHT22;40425;51.102;17.208;2022-08-02T20:17:53;19.10;99.90
40696;DHT22;40425;51.102;17.208;2022-08-02T20:22:55;19.10;99.90
40696;DHT22;40425;51.102;17.208;2022-08-02T20:28:14;19.00;99.90
40696;DHT22;40425;51.102;17.208;2022-08-02T20:33:16;19.00;99.90
40696;DHT22;40425;51.102;17.208;2022-08-02T20:38:17;19.00;99.90
40696;DHT22;40425;51.102;17.208;2022-08-02T20:43:18;18.70;99.90
40696;DHT22;40425;51.102;17.208;2022-08-02T20:48:19;18.20;99.90
40696;DHT22;40425;51.102;17.208;2022-08-02T20:53:20;18.20;99.90
40696;DHT22;40425;51.102;17.208;2022-08-02T20:58:23;18.30;99.90
40696;DHT22;40425;51.102;17.208;2022-08-02T21:03:27;18.30;99.90
40696;DHT22;40425;51.102;17.208;2022-08-02T21:08:28;18.30;99.90
40696;DHT22;40425;51.102;17.208;2022-08-02T21:13:29;18.20;99.90
40696;DHT22;40425;51.102;17.208;2022-08-02T21:18:30;18.10;99.90
40696;DHT22;40425;51.102;17.208;2022-08-02T21:23:31;18.00;99.90
40696;DHT22;40425;51.102;17.208;2022-08-02T21:28:33;17.90;99.90
40696;DHT22;40425;51.102;17.208;2022-08-02T21:33:34;17.70;99.90
40696;DHT22;40425;51.102;17.208;2022-08-02T21:38:35;17.70;99.90
40696;DHT22;40425;51.102;17.208;2022-08-02T21:43:36;17.80;99.90
40696;DHT22;40425;51.102;17.208;2022-08-02T21:48:37;17.70;99.90
40696;DHT22;40425;51.102;17.208;2022-08-02T21:53:38;17.60;99.90
40696;DHT22;40425;51.102;17.208;2022-08-02T21:58:38;17.60;99.90
40696;DHT22;40425;51.102;17.208;2022-08-02T22:03:39;17.50;99.90
40696;DHT22;40425;51.102;17.208;2022-08-02T22:08:40;17.50;99.90
40696;DHT22;40425;51.102;17.208;2022-08-02T22:13:41;17.50;99.90
40696;DHT22;40425;51.102;17.208;2022-08-02T22:18:42;17.40;99.90
40696;DHT22;40425;51.102;17.208;2022-08-02T22:23:43;17.30;99.90
40696;DHT22;40425;51.102;17.208;2022-08-02T22:28:44;17.20;99.90
40696;DHT22;40425;51.102;17.208;2022-08-02T22:33:45;17.10;99.90
40696;DHT22;40425;51.102;17.208;2022-08-02T22:39:06;17.00;99.90
40696;DHT22;40425;51.102;17.208;2022-08-02T22:44:07;16.90;99.90
40696;DHT22;40425;51.102;17.208;2022-08-02T22:49:08;16.70;99.90
40696;DHT22;40425;51.102;17.208;2022-08-02T22:54:09;16.70;99.90
40696;DHT22;40425;51.102;17.208;2022-08-02T22:59:10;16.60;99.90
40696;DHT22;40425;51.102;17.208;2022-08-02T23:04:10;16.60;99.90
40696;DHT22;40425;51.102;17.208;2022-08-02T23:09:11;16.40;99.90
40696;DHT22;40425;51.102;17.208;2022-08-02T23:14:12;16.40;99.90
40696;DHT22;40425;51.102;17.208;2022-08-02T23:19:15;16.50;99.90
40696;DHT22;40425;51.102;17.208;2022-08-02T23:24:34;16.50;99.90
40696;DHT22;40425;51.102;17.208;2022-08-02T23:29:35;16.40;99.90
40696;DHT22;40425;51.102;17.208;2022-08-02T23:34:36;16.40;99.90
40696;DHT22;40425;51.102;17.208;2022-08-02T23:39:37;16.30;99.90
40696;DHT22;40425;51.102;17.208;2022-08-02T23:44:38;16.20;99.90
40696;DHT22;40425;51.102;17.208;2022-08-02T23:49:39;16.10;99.90
40696;DHT22;40425;51.102;17.208;2022-08-02T23:54:40;16.00;99.90
40696;DHT22;40425;51.102;17.208;2022-08-02T23:59:41;16.00;99.90
